createdAt,value
2023-05-20T00:03:20.147Z,101104.16
2023-05-20T00:08:23.022Z,101098.03
2023-05-20T00:13:27.248Z,101091.06
2023-05-20T00:18:30.038Z,101089.09
2023-05-20T00:23:32.809Z,101084.91
2023-05-20T00:28:36.999Z,101080.50
2023-05-20T00:33:39.802Z,101082.44
2023-05-20T00:38:42.618Z,101085.50
2023-05-20T00:43:46.800Z,101087.53
2023-05-20T00:48:49.600Z,101091.22
2023-05-20T00:53:52.386Z,101094.88
2023-05-20T00:58:56.627Z,101087.88
2023-05-20T01:03:59.831Z,101087.34
2023-05-20T01:09:02.605Z,101096.53
2023-05-20T01:14:08.096Z,101091.03
2023-05-20T01:19:15.657Z,101082.31
2023-05-20T01:24:19.934Z,101083.19
2023-05-20T01:29:22.769Z,101082.53
2023-05-20T01:34:25.609Z,101078.47
2023-05-20T01:39:29.752Z,101070.53
2023-05-20T01:44:32.633Z,101063.75
2023-05-20T01:49:35.489Z,101071.19
2023-05-20T01:54:39.636Z,101085.81
2023-05-20T01:59:42.455Z,101078.22
2023-05-20T02:04:47.990Z,101065.94
2023-05-20T02:09:52.184Z,101069.72
2023-05-20T02:14:55.465Z,101068.22
2023-05-20T02:19:58.461Z,101079.03
2023-05-20T02:25:04.400Z,101071.31
2023-05-20T02:30:09.017Z,101066.06
2023-05-20T02:35:11.848Z,101068.09
2023-05-20T02:40:16.069Z,101067.34
2023-05-20T02:45:19.036Z,101057.69
2023-05-20T02:50:22.108Z,101044.34
2023-05-20T02:55:26.253Z,101052.63
2023-05-20T03:00:30.487Z,101050.91
2023-05-20T03:05:33.464Z,101061.78
2023-05-20T03:10:37.836Z,101067.38
2023-05-20T03:15:41.790Z,101061.22
2023-05-20T03:20:44.566Z,101068.66
2023-05-20T03:25:49.244Z,101069.84
2023-05-20T03:30:52.623Z,101076.28
2023-05-20T03:35:55.469Z,101063.94
2023-05-20T03:40:59.776Z,101063.19
2023-05-20T03:46:02.707Z,101068.78
2023-05-20T03:51:05.673Z,101073.50
2023-05-20T03:56:10.591Z,101074.47
2023-05-20T04:01:15.329Z,101070.06
2023-05-20T04:06:18.277Z,101072.88
2023-05-20T04:11:22.968Z,101063.28
2023-05-20T04:16:26.002Z,101057.03
2023-05-20T04:21:28.928Z,101054.47
2023-05-20T04:26:33.699Z,101066.94
2023-05-20T04:31:36.661Z,101060.81
2023-05-20T04:36:39.928Z,101062.63
2023-05-20T04:41:45.118Z,101070.91
2023-05-20T04:46:48.710Z,101070.81
2023-05-20T04:51:51.926Z,101081.56
2023-05-20T04:56:56.606Z,101076.63
2023-05-20T05:01:59.465Z,101081.66
2023-05-20T05:07:02.395Z,101078.56
2023-05-20T05:12:07.362Z,101076.75
2023-05-20T05:17:10.167Z,101083.59
2023-05-20T05:22:13.127Z,101080.69
2023-05-20T05:27:17.898Z,101070.72
2023-05-20T05:32:20.804Z,101062.53
2023-05-20T05:37:24.079Z,101053.72
2023-05-20T05:42:29.309Z,101040.38
2023-05-20T05:47:32.922Z,101040.38
2023-05-20T05:52:36.602Z,101044.69
2023-05-20T05:57:42.133Z,101053.63
2023-05-20T06:02:45.743Z,101042.00
2023-05-20T06:07:53.708Z,101049.84
2023-05-20T06:12:58.231Z,101044.34
2023-05-20T06:18:02.185Z,101040.78
2023-05-20T06:23:05.367Z,101046.91
2023-05-20T06:28:18.579Z,101044.91
2023-05-20T06:33:21.575Z,101043.50
2023-05-20T06:38:24.514Z,101040.22
2023-05-20T06:43:28.864Z,101054.56
2023-05-20T06:48:45.427Z,101056.28
2023-05-20T06:53:48.535Z,101042.47
2023-05-20T06:58:53.163Z,101034.28
2023-05-20T07:03:56.220Z,101047.97
2023-05-20T07:09:00.971Z,101037.00
2023-05-20T07:14:05.571Z,101032.19
2023-05-20T07:19:09.010Z,101018.06
2023-05-20T07:24:11.964Z,101018.91
2023-05-20T07:29:16.387Z,101014.75
2023-05-20T07:34:20.632Z,101019.78
2023-05-20T07:39:23.697Z,101012.78
2023-05-20T07:44:28.032Z,101013.25
2023-05-20T07:49:31.418Z,101029.50
2023-05-20T07:54:35.750Z,101002.72
2023-05-20T07:59:41.207Z,100987.97
2023-05-20T08:04:44.413Z,100988.16
2023-05-20T08:09:49.801Z,100988.34
2023-05-20T08:14:54.927Z,100981.56
2023-05-20T08:19:57.891Z,100990.63
2023-05-20T08:25:00.900Z,100989.28
2023-05-20T08:30:05.590Z,100977.03
2023-05-20T08:35:09.272Z,100980.38
2023-05-20T08:40:13.539Z,100991.31
2023-05-20T08:45:20.428Z,100977.59
2023-05-20T08:50:24.889Z,100971.34
2023-05-20T08:55:30.297Z,100962.41
2023-05-20T09:00:34.856Z,100968.00
2023-05-20T09:05:37.749Z,100960.78
2023-05-20T09:10:41.160Z,100950.38
2023-05-20T09:15:45.469Z,100952.84
2023-05-20T09:20:52.874Z,100943.91
2023-05-20T09:25:55.724Z,100952.41
2023-05-20T09:31:00.667Z,100941.41
2023-05-20T09:36:04.961Z,100936.47
2023-05-20T09:41:09.222Z,100928.97
2023-05-20T09:46:13.656Z,100917.69
2023-05-20T09:51:16.703Z,100923.88
2023-05-20T09:56:20.027Z,100933.19
2023-05-20T10:01:24.261Z,100913.19
2023-05-20T10:06:39.245Z,100917.19
2023-05-20T10:11:48.372Z,100906.59
2023-05-20T10:16:54.500Z,100905.00
2023-05-20T10:21:59.020Z,100901.41
2023-05-20T10:27:03.328Z,100887.13
2023-05-20T10:32:08.352Z,100888.41
2023-05-20T10:37:11.224Z,100878.88
2023-05-20T10:42:14.066Z,100890.31
2023-05-20T10:47:25.527Z,100886.59
2023-05-20T10:52:29.297Z,100877.16
2023-05-20T10:57:32.326Z,100871.44
2023-05-20T11:02:36.801Z,100866.75
2023-05-20T11:07:40.380Z,100856.25
2023-05-20T11:12:43.418Z,100852.31
2023-05-20T11:17:55.229Z,100845.81
2023-05-20T11:22:58.174Z,100850.09
2023-05-20T11:28:01.022Z,100842.78
2023-05-20T11:33:05.468Z,100823.06
2023-05-20T11:38:09.359Z,100842.78
2023-05-20T11:43:12.696Z,100829.50
2023-05-20T11:48:16.909Z,100812.72
2023-05-20T11:53:20.468Z,100794.34
2023-05-20T11:58:23.934Z,100797.66
2023-05-20T12:03:28.301Z,100790.38
2023-05-20T12:08:31.180Z,100799.19
2023-05-20T12:13:35.405Z,100781.31
2023-05-20T12:18:40.106Z,100777.56
2023-05-20T12:23:42.979Z,100771.59
2023-05-20T12:28:45.885Z,100757.88
2023-05-20T12:33:50.145Z,100748.47
2023-05-20T12:38:53.112Z,100757.16
2023-05-20T12:43:56.148Z,100750.69
2023-05-20T12:49:00.382Z,100735.19
2023-05-20T12:54:03.203Z,100726.72
2023-05-20T12:59:06.229Z,100717.78
2023-05-20T13:04:10.985Z,100723.34
2023-05-20T13:09:13.964Z,100717.47
2023-05-20T13:14:17.499Z,100711.31
2023-05-20T13:19:22.034Z,100709.13
2023-05-20T13:24:24.917Z,100699.75
2023-05-20T13:29:27.947Z,100700.25
2023-05-20T13:34:32.623Z,100690.22
2023-05-20T13:39:36.339Z,100686.75
2023-05-20T13:44:39.243Z,100677.38
2023-05-20T13:49:43.367Z,100671.41
2023-05-20T14:02:38.987Z,100678.44
2023-05-20T14:07:41.930Z,100665.06
2023-05-20T14:12:47.971Z,100652.75
2023-05-20T14:17:52.802Z,100655.59
2023-05-20T14:22:55.787Z,100646.50
2023-05-20T14:27:58.597Z,100630.41
2023-05-20T14:33:02.913Z,100625.72
2023-05-20T14:38:05.809Z,100615.88
2023-05-20T14:43:08.681Z,100611.25
2023-05-20T14:48:12.958Z,100609.59
2023-05-20T14:53:15.899Z,100604.06
2023-05-20T14:58:18.847Z,100596.59
2023-05-20T15:03:24.428Z,100590.75
2023-05-20T15:08:27.420Z,100585.88
2023-05-20T15:13:30.321Z,100588.72
2023-05-20T15:18:34.564Z,100579.44
2023-05-20T15:23:37.523Z,100569.84
2023-05-20T15:28:40.439Z,100573.03
2023-05-20T15:33:44.710Z,100579.31
2023-05-20T15:38:47.602Z,100576.09
2023-05-20T15:43:51.107Z,100568.28
2023-05-20T15:48:57.919Z,100562.78
2023-05-20T15:54:01.070Z,100556.84
2023-05-20T15:59:03.955Z,100560.47
2023-05-20T16:04:08.360Z,100561.72
2023-05-20T16:09:11.308Z,100570.13
2023-05-20T16:14:14.164Z,100547.19
2023-05-20T16:19:18.429Z,100548.72
2023-05-20T16:24:21.519Z,100545.56
2023-05-20T16:29:24.449Z,100546.84
2023-05-20T16:34:28.751Z,100545.59
2023-05-20T16:39:31.676Z,100544.47
2023-05-20T16:44:38.553Z,100543.25
2023-05-20T16:49:42.712Z,100531.16
2023-05-20T16:54:45.930Z,100536.84
2023-05-20T16:59:49.445Z,100537.28
2023-05-20T17:04:53.722Z,100544.09
2023-05-20T17:09:56.534Z,100538.09
2023-05-20T17:14:59.490Z,100551.22
2023-05-20T17:20:05.327Z,100549.22
2023-05-20T17:25:08.984Z,100536.53
2023-05-20T17:30:12.840Z,100549.47
2023-05-20T17:35:17.277Z,100550.88
2023-05-20T17:40:20.437Z,100546.28
2023-05-20T17:45:23.478Z,100562.63
2023-05-20T17:50:27.791Z,100572.78
2023-05-20T17:55:32.459Z,100563.75
2023-05-20T18:00:42.324Z,100564.19
2023-05-20T18:05:46.680Z,100574.66
2023-05-20T18:10:49.710Z,100580.84
2023-05-20T18:15:53.163Z,100602.72
2023-05-20T18:20:57.882Z,100587.66
2023-05-20T18:26:00.742Z,100600.53
2023-05-20T18:31:03.585Z,100600.25
2023-05-20T18:36:08.741Z,100602.34
2023-05-20T18:41:11.585Z,100601.03
2023-05-20T18:46:17.150Z,100573.94
2023-05-20T18:51:21.603Z,100605.25
2023-05-20T18:56:24.460Z,100604.53
2023-05-20T19:01:28.562Z,100611.63
2023-05-20T19:06:35.282Z,100618.22
2023-05-20T19:11:38.449Z,100622.03
2023-05-20T19:16:41.349Z,100633.81
2023-05-20T19:21:46.156Z,100622.88
2023-05-20T19:26:51.628Z,100621.78
2023-05-20T19:31:54.545Z,100643.00
2023-05-20T19:36:58.837Z,100638.34
2023-05-20T19:42:01.722Z,100626.97
2023-05-20T19:47:05.588Z,100637.50
2023-05-20T19:52:09.851Z,100628.94
2023-05-20T19:57:12.671Z,100630.63
2023-05-20T20:02:15.808Z,100628.94
2023-05-20T20:07:20.593Z,100627.09
2023-05-20T20:12:23.579Z,100629.53
2023-05-20T20:17:26.566Z,100619.84
2023-05-20T20:22:30.986Z,100622.53
2023-05-20T20:27:33.888Z,100625.13
2023-05-20T20:32:37.829Z,100625.84
2023-05-20T20:37:42.373Z,100622.31
2023-05-20T20:42:48.364Z,100629.53
2023-05-20T20:47:54.861Z,100624.16
2023-05-20T20:52:59.156Z,100621.44
2023-05-20T20:58:03.345Z,100620.59
2023-05-20T21:03:07.846Z,100612.66
2023-05-20T21:08:13.221Z,100603.69
2023-05-20T21:13:16.226Z,100610.66
2023-05-20T21:18:21.741Z,100601.88
2023-05-20T21:23:25.963Z,100605.53
2023-05-20T21:28:28.769Z,100603.94
2023-05-20T21:33:31.691Z,100603.94
2023-05-20T21:38:35.879Z,100606.50
2023-05-20T21:43:38.758Z,100605.06
2023-05-20T21:48:41.615Z,100603.50
2023-05-20T21:53:46.006Z,100617.84
2023-05-20T21:58:48.849Z,100606.31
2023-05-20T22:03:51.988Z,100607.56
2023-05-20T22:08:56.237Z,100603.88
2023-05-20T22:13:59.666Z,100604.72
2023-05-20T22:19:03.280Z,100594.22
2023-05-20T22:24:07.938Z,100588.84
2023-05-20T22:29:10.761Z,100582.59
2023-05-20T22:34:13.671Z,100587.00
2023-05-20T22:39:18.054Z,100576.22
2023-05-20T22:44:20.930Z,100574.38
2023-05-20T22:49:25.102Z,100574.38
2023-05-20T22:54:29.455Z,100579.63
2023-05-20T22:59:32.689Z,100559.91
2023-05-20T23:04:35.576Z,100554.66
2023-05-20T23:09:39.875Z,100551.09
2023-05-20T23:14:42.835Z,100548.13
2023-05-20T23:19:45.656Z,100545.59
2023-05-20T23:24:49.914Z,100539.19
2023-05-20T23:29:52.756Z,100542.75
2023-05-20T23:34:55.640Z,100540.66
2023-05-20T23:39:59.813Z,100543.59
2023-05-20T23:45:02.745Z,100543.47
2023-05-20T23:50:06.160Z,100545.19
2023-05-20T23:55:14.294Z,100545.06
